Time;durP1;ratioP1;P1;durP2;ratioP2;P2;SDS_P1;SDS_P2;PMS_P1;PMS_P2;Temp;Humidity;BMP_temperature;BMP_pressure;BME280_temperature;BME280_humidity;BME280_pressure;Samples;Min_cycle;Max_cycle;Signal;HPM_P1;HPM_P2
2023/10/03 00:00:28;;;;;;;16.05;8.98;;;;;;;12.17;100.00;95728.72;4889782;29;20072;-82
2023/10/03 00:02:55;;;;;;;11.73;8.93;;;;;;;12.13;100.00;95739.41;4904954;29;20414;-82
2023/10/03 00:05:22;;;;;;;13.32;8.88;;;;;;;12.04;100.00;95732.56;4891391;29;20109;-85
2023/10/03 00:08:04;;;;;;;10.70;8.43;;;;;;;11.85;100.00;95738.03;4887009;29;20044;-79
2023/10/03 00:10:30;;;;;;;11.73;8.90;;;;;;;11.94;100.00;95742.31;4895000;29;20028;-83
2023/10/03 00:12:55;;;;;;;12.82;8.40;;;;;;;12.02;100.00;95744.09;4888358;29;20786;-82
2023/10/03 00:15:26;;;;;;;12.10;9.35;;;;;;;11.61;100.00;95745.75;4893192;29;20036;-80
2023/10/03 00:20:24;;;;;;;12.77;8.68;;;;;;;11.53;100.00;95748.28;4908333;29;20076;-81
2023/10/03 00:22:50;;;;;;;12.85;8.27;;;;;;;11.69;100.00;95748.34;4898099;29;20415;-82
2023/10/03 00:27:53;;;;;;;10.10;8.38;;;;;;;11.75;100.00;95742.56;5472324;23;20060;-84
2023/10/03 00:30:25;;;;;;;13.95;8.93;;;;;;;11.64;100.00;95741.06;4873919;29;20025;-81
2023/10/03 00:45:48;;;;;;;15.45;7.90;;;;;;;11.55;100.00;95751.56;5718994;23;20059;-82
2023/10/03 00:48:15;;;;;;;11.75;8.77;;;;;;;11.37;100.00;95758.59;4909253;29;20013;-82
2023/10/03 00:53:15;;;;;;;14.15;8.48;;;;;;;11.09;100.00;95768.34;5655810;23;20071;-82
2023/10/03 01:01:05;;;;;;;13.40;8.57;;;;;;;11.09;100.00;95761.41;6002918;23;20041;-79
2023/10/03 01:03:32;;;;;;;12.68;8.15;;;;;;;11.09;100.00;95758.81;4890789;29;20843;-81
2023/10/03 01:06:09;;;;;;;9.52;8.43;;;;;;;11.15;100.00;95762.56;4901016;29;20075;-80
2023/10/03 01:08:36;;;;;;;14.23;9.00;;;;;;;11.13;100.00;95766.28;4910423;29;20020;-81
2023/10/03 01:11:06;;;;;;;11.57;8.80;;;;;;;11.01;100.00;95763.16;4909542;29;20047;-79
2023/10/03 01:13:33;;;;;;;12.45;8.38;;;;;;;10.86;100.00;95765.47;4899197;29;20028;-80
2023/10/03 01:15:58;;;;;;;13.52;8.40;;;;;;;10.71;100.00;95772.16;4904501;29;20021;-80
2023/10/03 01:18:26;;;;;;;10.02;8.43;;;;;;;10.72;100.00;95778.16;4899950;29;20388;-80
2023/10/03 01:20:55;;;;;;;12.57;8.00;;;;;;;10.52;100.00;95770.56;4910319;29;20015;-81
2023/10/03 01:44:57;;;;;;;12.68;9.25;;;;;;;9.69;100.00;95773.47;5957475;23;20865;-78
2023/10/03 01:47:22;;;;;;;15.52;9.55;;;;;;;9.38;100.00;95748.84;4916141;29;20547;-83
2023/10/03 02:18:18;;;;;;;17.15;8.77;;;;;;;9.21;100.00;95754.78;4996484;23;20546;-80
2023/10/03 02:21:15;;;;;;;15.70;9.25;;;;;;;9.38;100.00;95798.78;4900714;29;20029;-80
2023/10/03 02:23:42;;;;;;;12.18;9.20;;;;;;;9.18;100.00;95792.06;4897644;29;20032;-79
2023/10/03 02:26:10;;;;;;;13.43;8.68;;;;;;;9.19;100.00;95806.59;4905502;29;20475;-80
2023/10/03 02:28:36;;;;;;;15.23;8.75;;;;;;;8.92;100.00;95760.88;4916540;29;20024;-86
2023/10/03 02:31:07;;;;;;;13.52;8.48;;;;;;;8.98;100.00;95795.66;5433562;23;20047;-82
2023/10/03 02:33:32;;;;;;;12.68;9.75;;;;;;;8.92;100.00;95768.63;4902050;29;20033;-81
2023/10/03 02:43:47;;;;;;;15.35;8.88;;;;;;;8.75;100.00;95755.59;5152913;23;20831;-79
2023/10/03 02:46:12;;;;;;;13.03;8.67;;;;;;;8.87;100.00;95791.47;4930241;29;20082;-81
2023/10/03 02:48:38;;;;;;;15.77;8.50;;;;;;;8.94;100.00;95766.72;4916803;29;20877;-82
2023/10/03 02:51:05;;;;;;;10.48;9.00;;;;;;;8.99;100.00;95751.59;4910801;29;20032;-78
2023/10/03 02:53:31;;;;;;;12.20;8.43;;;;;;;8.97;100.00;95799.19;4908377;29;20027;-78
2023/10/03 02:55:58;;;;;;;12.02;8.50;;;;;;;9.13;100.00;95783.09;4910786;29;20020;-79
2023/10/03 02:58:23;;;;;;;16.05;8.63;;;;;;;9.10;100.00;95760.94;4925736;29;20039;-80
2023/10/03 03:00:57;;;;;;;10.23;8.10;;;;;;;9.10;100.00;95794.53;4910293;29;20036;-80
2023/10/03 03:03:29;;;;;;;9.40;8.40;;;;;;;8.82;100.00;95791.06;4905456;29;20035;-80
2023/10/03 03:05:54;;;;;;;10.88;8.30;;;;;;;8.77;100.00;95790.66;4895216;29;20078;-80
2023/10/03 03:10:57;;;;;;;16.00;8.50;;;;;;;8.57;100.00;95793.44;4898015;29;20031;-79
2023/10/03 03:16:14;;;;;;;;;;;;;;;8.73;100.00;95789.28;4912333;29;20043;-79
2023/10/03 03:18:40;;;;;;;12.45;8.70;;;;;;;8.52;100.00;95793.81;4935203;29;19923;-82
2023/10/03 03:31:33;;;;;;;14.52;8.57;;;;;;;8.33;100.00;95801.56;5382630;23;20067;-80
2023/10/03 03:34:02;;;;;;;17.20;9.90;;;;;;;8.16;100.00;95786.72;4882622;29;20511;-80
2023/10/03 03:36:30;;;;;;;16.75;9.77;;;;;;;8.30;100.00;95833.63;4898054;29;20028;-79
2023/10/03 03:38:58;;;;;;;19.25;10.32;;;;;;;8.29;100.00;95836.34;4898422;29;20523;-80
2023/10/03 03:41:24;;;;;;;18.67;9.95;;;;;;;8.03;100.00;95789.56;4918014;29;20021;-82
2023/10/03 03:43:49;;;;;;;20.00;9.73;;;;;;;8.09;100.00;95807.09;4920086;29;20017;-84
2023/10/03 03:46:18;;;;;;;14.88;9.88;;;;;;;7.89;100.00;95793.38;4919941;29;20069;-86
2023/10/03 03:48:44;;;;;;;17.60;11.60;;;;;;;7.93;100.00;95793.91;4919704;29;20024;-82
2023/10/03 03:58:45;;;;;;;18.40;11.10;;;;;;;7.95;100.00;95818.63;4990371;23;20041;-82
2023/10/03 04:01:14;;;;;;;14.77;9.85;;;;;;;7.94;100.00;95827.31;5369223;23;20057;-78
2023/10/03 04:06:55;;;;;;;19.75;11.07;;;;;;;8.07;100.00;95873.47;514665;27;20186;-83
2023/10/03 04:09:20;;;;;;;16.48;10.70;;;;;;;7.84;100.00;95861.75;4938432;23;20076;-84
2023/10/03 04:11:49;;;;;;;21.48;12.05;;;;;;;7.72;100.00;95843.00;4915236;29;20021;-84
2023/10/03 04:16:50;;;;;;;21.15;13.10;;;;;;;7.86;100.00;95855.53;4049266;23;20461;-81
2023/10/03 04:19:15;;;;;;;24.83;12.48;;;;;;;7.82;100.00;95843.03;4934335;23;20056;-84
2023/10/03 04:21:41;;;;;;;17.13;10.90;;;;;;;7.88;100.00;95843.31;4983554;23;20015;-81
2023/10/03 04:24:09;;;;;;;21.48;12.55;;;;;;;7.58;100.00;95830.44;4924589;29;20039;-84
2023/10/03 04:26:42;;;;;;;18.95;12.43;;;;;;;7.97;100.00;95903.59;4989972;23;20060;-84
2023/10/03 04:29:11;;;;;;;19.48;11.45;;;;;;;7.53;100.00;95834.38;4921852;29;20028;-84
2023/10/03 04:31:37;;;;;;;19.17;10.10;;;;;;;7.62;100.00;95859.38;5070924;23;20045;-85
2023/10/03 04:36:36;;;;;;;14.10;9.38;;;;;;;7.65;100.00;95857.34;4916842;29;20422;-83
2023/10/03 04:46:48;;;;;;;15.43;11.35;;;;;;;7.87;100.00;95857.13;4937623;23;20102;-84
2023/10/03 04:49:14;;;;;;;22.17;11.43;;;;;;;7.77;100.00;95850.34;5127505;23;20132;-82
2023/10/03 04:51:40;;;;;;;13.27;9.60;;;;;;;7.97;100.00;95862.31;4915788;29;20065;-84
2023/10/03 04:54:06;;;;;;;18.40;9.27;;;;;;;8.29;100.00;95900.84;4923374;29;20080;-84
2023/10/03 04:56:31;;;;;;;15.50;9.10;;;;;;;8.33;100.00;95863.50;5146328;23;20104;-77
2023/10/03 05:19:39;;;;;;;13.90;8.77;;;;;;;10.59;100.00;95787.13;5628661;23;20103;-86
2023/10/03 05:22:08;;;;;;;10.05;7.50;;;;;;;10.75;100.00;95773.50;4885914;29;20028;-86
2023/10/03 05:24:33;;;;;;;13.68;7.60;;;;;;;11.14;100.00;95767.91;4888562;29;20066;-84
2023/10/03 05:26:59;;;;;;;7.72;6.90;;;;;;;11.14;100.00;95768.72;4866539;29;20556;-86
2023/10/03 05:29:27;;;;;;;7.72;6.88;;;;;;;11.22;100.00;95771.34;4876311;29;20033;-85
2023/10/03 05:31:54;;;;;;;10.07;7.30;;;;;;;11.94;100.00;95768.28;4869382;29;20032;-85
2023/10/03 05:34:20;;;;;;;11.10;7.25;;;;;;;12.99;100.00;95737.09;4885459;29;20040;-83
2023/10/03 05:36:47;;;;;;;14.05;6.88;;;;;;;13.53;100.00;95729.47;4885758;29;20044;-83
2023/10/03 05:39:15;;;;;;;7.85;6.88;;;;;;;13.51;100.00;95721.84;4875171;29;20101;-84
2023/10/03 05:41:41;;;;;;;8.50;7.13;;;;;;;13.51;100.00;95731.44;4881914;29;20120;-84
2023/10/03 05:44:11;;;;;;;8.82;6.78;;;;;;;14.11;100.00;95729.81;4875101;29;20040;-83
2023/10/03 05:46:59;;;;;;;10.30;6.18;;;;;;;13.93;100.00;95728.47;4859135;29;20051;-82
2023/10/03 05:49:25;;;;;;;10.73;6.82;;;;;;;14.38;100.00;95723.31;4861442;29;20929;-80
2023/10/03 05:51:56;;;;;;;9.98;6.80;;;;;;;14.49;100.00;95715.06;4859437;29;20041;-81
2023/10/03 05:54:25;;;;;;;8.60;6.63;;;;;;;14.80;100.00;95721.97;4859579;29;20021;-81
2023/10/03 05:56:51;;;;;;;11.07;7.07;;;;;;;15.16;100.00;95718.47;4841772;29;20073;-79
2023/10/03 05:59:20;;;;;;;10.13;7.07;;;;;;;15.36;100.00;95720.53;4860475;29;20457;-78
2023/10/03 06:01:49;;;;;;;8.07;7.32;;;;;;;15.20;100.00;95726.75;4846390;29;20029;-78
2023/10/03 06:04:14;;;;;;;;;;;;;;;15.92;100.00;95719.06;4849182;29;20041;-79
2023/10/03 06:06:40;;;;;;;8.07;7.18;;;;;;;16.79;100.00;95717.91;4856045;29;19930;-78
2023/10/03 06:09:10;;;;;;;11.80;7.50;;;;;;;17.95;100.00;95694.34;4841017;29;20054;-79
2023/10/03 06:11:36;;;;;;;7.88;6.80;;;;;;;18.51;94.17;95705.38;4835202;29;20041;-79
2023/10/03 06:14:03;;;;;;;9.98;7.50;;;;;;;19.30;86.17;95714.00;4836169;29;20044;-79
2023/10/03 06:16:29;;;;;;;7.80;6.63;;;;;;;20.91;74.23;95699.63;4857935;29;20045;-79
2023/10/03 06:18:56;;;;;;;7.50;6.82;;;;;;;21.39;70.91;95705.88;4843046;29;20043;-78
2023/10/03 06:21:23;;;;;;;8.02;7.15;;;;;;;22.32;65.65;95702.91;4866236;29;20048;-78
2023/10/03 06:23:49;;;;;;;12.10;7.60;;;;;;;22.83;62.79;95705.03;4851435;29;20040;-77
2023/10/03 06:26:18;;;;;;;7.90;7.17;;;;;;;22.50;64.09;95703.69;4855375;29;20039;-78
2023/10/03 06:28:44;;;;;;;10.45;7.80;;;;;;;23.42;58.55;95704.84;4858127;29;20033;-78
2023/10/03 06:31:11;;;;;;;7.88;7.13;;;;;;;23.37;57.81;95699.41;4840745;29;20044;-78
2023/10/03 06:33:37;;;;;;;7.75;6.95;;;;;;;22.75;61.32;95702.72;4855693;29;20355;-78
2023/10/03 06:36:06;;;;;;;9.05;7.40;;;;;;;21.91;65.43;95695.75;4851493;29;20042;-77
2023/10/03 06:38:32;;;;;;;8.68;6.80;;;;;;;23.95;57.26;95706.47;4841113;29;20037;-78
2023/10/03 06:40:57;;;;;;;7.72;6.68;;;;;;;24.61;55.70;95705.84;4845492;29;20042;-78
2023/10/03 06:43:22;;;;;;;11.85;7.22;;;;;;;24.17;57.26;95698.69;4841233;29;20021;-77
2023/10/03 06:45:48;;;;;;;13.93;7.47;;;;;;;24.73;54.65;95701.25;4862258;29;20048;-77
2023/10/03 06:48:14;;;;;;;8.93;6.93;;;;;;;25.02;52.90;95700.19;4860262;29;20416;-79
2023/10/03 06:50:42;;;;;;;10.65;6.95;;;;;;;25.38;51.57;95704.16;4860714;29;20444;-78
2023/10/03 06:53:09;;;;;;;10.25;6.70;;;;;;;25.84;51.00;95713.56;4857213;29;20123;-78
2023/10/03 06:55:35;;;;;;;10.73;6.75;;;;;;;25.29;51.70;95705.63;4859886;29;20101;-79
2023/10/03 06:58:05;;;;;;;9.97;6.97;;;;;;;25.39;51.18;95705.78;4855753;29;20033;-78
2023/10/03 07:00:32;;;;;;;9.98;6.95;;;;;;;25.71;50.27;95702.50;4862391;29;20777;-79
2023/10/03 07:02:58;;;;;;;9.23;6.85;;;;;;;26.34;49.39;95707.22;4845545;29;20045;-78
2023/10/03 07:05:24;;;;;;;8.13;7.32;;;;;;;27.58;46.62;95708.53;4853586;29;20768;-78
2023/10/03 07:07:49;;;;;;;11.07;6.07;;;;;;;27.10;46.88;95700.75;4847101;29;20117;-79
2023/10/03 07:10:15;;;;;;;8.75;6.95;;;;;;;28.27;44.33;95705.63;4862500;29;20040;-80
2023/10/03 07:12:40;;;;;;;9.52;6.82;;;;;;;27.07;45.54;95701.25;4866288;29;20491;-79
2023/10/03 07:15:11;;;;;;;8.07;6.93;;;;;;;27.70;44.03;95706.47;4861548;29;20165;-78
2023/10/03 07:17:37;;;;;;;8.07;6.30;;;;;;;26.85;46.45;95711.19;4865719;29;20033;-79
2023/10/03 07:20:05;;;;;;;10.38;6.90;;;;;;;26.61;46.30;95705.38;4848935;29;20064;-80
2023/10/03 07:22:31;;;;;;;8.52;6.40;;;;;;;28.51;42.37;95708.63;4840259;29;20048;-79
2023/10/03 07:24:57;;;;;;;6.90;6.20;;;;;;;28.49;43.38;95713.41;4838854;29;20029;-79
2023/10/03 07:27:22;;;;;;;7.35;6.50;;;;;;;27.34;43.68;95707.28;4864620;29;21673;-79
2023/10/03 07:29:48;;;;;;;8.02;6.53;;;;;;;27.71;44.24;95709.91;4863506;29;20039;-79
2023/10/03 07:32:14;;;;;;;10.27;7.07;;;;;;;28.67;42.53;95708.41;4852063;29;20029;-80
2023/10/03 07:34:42;;;;;;;7.13;6.38;;;;;;;28.11;42.82;95704.00;4857516;29;20036;-80
2023/10/03 07:37:09;;;;;;;15.90;6.97;;;;;;;28.40;43.48;95707.81;4865992;29;20072;-79
2023/10/03 07:39:34;;;;;;;7.75;6.38;;;;;;;28.16;43.12;95714.66;4861685;29;20060;-78
2023/10/03 07:42:01;;;;;;;7.15;6.45;;;;;;;28.03;44.16;95710.59;4866691;29;20488;-79
2023/10/03 07:44:27;;;;;;;15.05;6.35;;;;;;;23.38;56.02;95711.59;4866155;29;20025;-81
2023/10/03 07:46:53;;;;;;;8.73;6.40;;;;;;;22.04;63.86;95711.44;4835903;29;20032;-80
2023/10/03 07:49:19;;;;;;;10.38;6.47;;;;;;;22.31;65.76;95709.25;4866473;29;20030;-80
2023/10/03 07:51:45;;;;;;;7.57;6.50;;;;;;;22.19;65.07;95714.47;4861193;29;20036;-82
2023/10/03 07:54:11;;;;;;;9.15;6.13;;;;;;;22.43;67.93;95716.19;4867591;29;20376;-79
2023/10/03 07:56:41;;;;;;;7.78;6.65;;;;;;;22.58;66.16;95713.91;4868328;29;20029;-79
2023/10/03 07:59:07;;;;;;;8.98;6.88;;;;;;;22.24;65.26;95711.16;4848845;29;20055;-79
2023/10/03 08:01:32;;;;;;;10.65;6.57;;;;;;;22.66;65.63;95715.47;4865362;29;20033;-79
2023/10/03 08:03:58;;;;;;;7.97;6.10;;;;;;;22.60;64.16;95717.13;4866662;29;20028;-79
2023/10/03 08:06:27;;;;;;;12.13;6.05;;;;;;;22.55;63.86;95718.84;4862126;29;20033;-79
2023/10/03 08:08:59;;;;;;;8.40;6.20;;;;;;;22.84;62.72;95715.38;4867366;29;20511;-82
2023/10/03 08:11:28;;;;;;;10.70;6.22;;;;;;;22.53;62.61;95713.78;4867075;29;20502;-80
2023/10/03 08:14:11;;;;;;;21.90;7.65;;;;;;;22.66;62.93;95717.28;4868758;29;20559;-78
2023/10/03 08:16:40;;;;;;;7.53;6.43;;;;;;;22.87;62.85;95709.63;4869246;29;20093;-83
2023/10/03 08:19:08;;;;;;;13.13;6.13;;;;;;;22.69;61.71;95704.44;4865133;29;20037;-80
2023/10/03 08:21:34;;;;;;;11.27;6.63;;;;;;;22.99;60.54;95699.06;4858365;29;20041;-83
2023/10/03 08:24:09;;;;;;;10.35;7.00;;;;;;;23.41;60.16;95699.75;4851303;29;20606;-80
2023/10/03 08:26:35;;;;;;;9.80;8.65;;;;;;;23.50;60.67;95701.03;4866245;29;20025;-79
2023/10/03 08:29:04;;;;;;;40.10;35.88;;;;;;;23.73;58.78;95702.84;4847254;29;20068;-79
2023/10/03 08:31:30;;;;;;;22.30;15.73;;;;;;;23.93;58.63;95705.88;4868709;29;20029;-81
2023/10/03 08:33:55;;;;;;;10.68;9.15;;;;;;;23.37;59.61;95701.25;4866231;29;20034;-80
2023/10/03 08:36:28;;;;;;;10.05;7.05;;;;;;;24.04;57.09;95702.41;4846112;29;20081;-80
2023/10/03 08:39:13;;;;;;;13.25;7.50;;;;;;;23.55;58.29;95701.13;4867077;29;20124;-81
2023/10/03 08:42:15;;;;;;;20.15;14.70;;;;;;;23.85;57.97;95695.66;4867027;29;20029;-81
2023/10/03 08:44:53;;;;;;;12.27;7.18;;;;;;;23.87;56.46;95696.22;4868558;29;20051;-83
2023/10/03 08:47:29;;;;;;;16.08;7.00;;;;;;;23.77;57.39;95698.66;4869515;29;20132;-79
2023/10/03 08:50:10;;;;;;;9.18;6.10;;;;;;;24.60;54.48;95690.97;4866798;29;20037;-82
2023/10/03 08:52:46;;;;;;;10.57;7.00;;;;;;;23.92;54.16;95683.88;4869889;29;20037;-79
2023/10/03 08:55:14;;;;;;;11.15;6.47;;;;;;;24.44;55.24;95687.25;4867030;29;20096;-80
2023/10/03 08:57:40;;;;;;;12.60;6.78;;;;;;;24.63;52.57;95685.19;4868458;29;20036;-78
2023/10/03 09:00:09;;;;;;;9.70;7.30;;;;;;;24.83;53.18;95679.44;4868795;29;20033;-80
2023/10/03 09:02:49;;;;;;;7.93;6.38;;;;;;;24.63;53.10;95674.59;4868789;29;20029;-81
2023/10/03 09:05:20;;;;;;;9.82;6.68;;;;;;;24.57;53.83;95679.00;4849192;29;20594;-81
2023/10/03 09:07:50;;;;;;;8.15;7.32;;;;;;;24.87;51.20;95673.44;4866217;29;20977;-84
2023/10/03 09:10:25;;;;;;;10.45;6.35;;;;;;;24.75;52.51;95678.00;4850383;29;20120;-79
2023/10/03 09:13:03;;;;;;;9.10;6.60;;;;;;;24.27;53.37;95675.03;4849284;29;20042;-81
2023/10/03 09:15:42;;;;;;;8.52;6.30;;;;;;;24.78;52.65;95676.69;4863398;29;20043;-81
2023/10/03 09:18:10;;;;;;;10.93;6.47;;;;;;;24.91;52.72;95679.06;4868049;29;20484;-81
2023/10/03 09:20:36;;;;;;;11.10;6.03;;;;;;;24.93;51.47;95669.00;4866133;29;20063;-81
2023/10/03 09:23:06;;;;;;;10.35;6.22;;;;;;;24.64;51.79;95677.00;4867833;29;20037;-80
2023/10/03 09:25:33;;;;;;;8.23;6.20;;;;;;;24.16;53.43;95674.06;4867472;29;20857;-80
2023/10/03 09:28:05;;;;;;;7.18;5.15;;;;;;;24.91;52.16;95671.09;4852108;29;20116;-81
2023/10/03 09:30:37;;;;;;;9.25;6.22;;;;;;;24.21;52.47;95671.47;4868020;29;20372;-80
2023/10/03 09:33:17;;;;;;;8.07;7.28;;;;;;;24.70;50.33;95663.84;4867312;29;20332;-81
2023/10/03 09:35:56;;;;;;;7.68;5.65;;;;;;;25.00;50.50;95669.66;4866889;29;20041;-79
2023/10/03 09:38:32;;;;;;;8.13;5.75;;;;;;;23.66;51.78;95667.75;4876358;29;20091;-80
2023/10/03 09:40:58;;;;;;;7.40;5.65;;;;;;;23.96;51.05;95663.03;4866898;29;20036;-82
2023/10/03 09:43:28;;;;;;;8.60;5.97;;;;;;;24.29;50.80;95660.53;4850904;29;20021;-82
2023/10/03 09:45:56;;;;;;;8.55;6.35;;;;;;;24.80;50.93;95648.09;4864809;29;20023;-81
2023/10/03 09:48:39;;;;;;;7.70;5.57;;;;;;;25.30;48.54;95654.16;4867636;29;20040;-89
2023/10/03 09:51:05;;;;;;;8.40;5.90;;;;;;;25.13;48.24;95650.75;4865982;29;20476;-81
2023/10/03 09:53:36;;;;;;;8.25;6.60;;;;;;;25.33;47.04;95648.38;4861218;29;20040;-81
2023/10/03 09:56:08;;;;;;;6.95;6.18;;;;;;;25.29;45.67;95639.31;4856407;29;20045;-83
2023/10/03 09:58:33;;;;;;;6.78;6.18;;;;;;;25.71;46.74;95641.44;4840396;29;20033;-82
2023/10/03 10:00:59;;;;;;;13.82;7.70;;;;;;;25.14;48.27;95639.09;4861540;29;20032;-80
2023/10/03 10:03:33;;;;;;;7.90;7.07;;;;;;;25.66;46.36;95629.69;4841721;29;20030;-81
2023/10/03 10:47:05;;;;;;;8.85;7.10;;;;;;;23.79;48.46;95583.59;5044202;28;20934;-79
2023/10/03 10:49:34;;;;;;;9.05;6.65;;;;;;;24.07;46.85;95580.13;5036555;28;20514;-79
2023/10/03 10:52:01;;;;;;;;;;;;;;;24.06;46.57;95575.88;5044611;28;20021;-80
2023/10/03 10:54:27;;;;;;;8.90;6.78;;;;;;;24.14;47.71;95578.94;5043921;28;19917;-79
2023/10/03 10:57:05;;;;;;;9.18;6.43;;;;;;;24.39;47.69;95569.81;5038331;28;20431;-79
2023/10/03 10:59:40;;;;;;;14.07;6.35;;;;;;;24.18;47.69;95579.28;5043617;28;20036;-81
2023/10/03 11:02:18;;;;;;;9.18;6.13;;;;;;;23.62;47.74;95572.19;5043923;28;20033;-78
2023/10/03 11:04:48;;;;;;;9.10;7.25;;;;;;;24.23;48.64;95568.78;5041890;28;20037;-79
2023/10/03 11:07:23;;;;;;;9.93;8.60;;;;;;;24.03;49.07;95568.41;5068558;28;20037;-79
2023/10/03 11:09:52;;;;;;;8.18;6.60;;;;;;;23.86;49.56;95567.56;5037547;28;20482;-81
2023/10/03 11:12:25;;;;;;;8.70;6.85;;;;;;;23.83;49.30;95566.22;5039502;28;20679;-79
2023/10/03 11:14:52;;;;;;;7.47;6.78;;;;;;;23.69;49.53;95561.47;5053776;28;20039;-83
2023/10/03 11:17:18;;;;;;;10.15;7.55;;;;;;;23.47;49.36;95551.53;5022885;28;20045;-79
2023/10/03 11:19:45;;;;;;;8.77;7.03;;;;;;;23.76;49.55;95551.53;5021964;28;20732;-80
2023/10/03 11:22:12;;;;;;;8.82;6.28;;;;;;;23.82;49.54;95540.00;5052344;28;20183;-79
2023/10/03 11:24:39;;;;;;;9.32;7.40;;;;;;;23.80;49.07;95536.78;5056417;28;20034;-82
2023/10/03 11:27:05;;;;;;;9.05;8.13;;;;;;;23.95;48.18;95539.69;5017801;28;20522;-82
2023/10/03 11:29:46;;;;;;;9.20;7.38;;;;;;;23.68;48.95;95538.69;5026274;28;20029;-80
2023/10/03 11:32:25;;;;;;;8.80;7.32;;;;;;;23.89;48.42;95530.84;5045594;28;20037;-80
2023/10/03 11:34:53;;;;;;;;;;;;;;;24.06;48.43;95528.22;5039967;28;20040;-83
2023/10/03 11:37:31;;;;;;;;;;;;;;;23.45;48.39;95524.50;5024158;28;20370;-82
2023/10/03 11:40:17;;;;;;;8.27;6.38;;;;;;;23.30;49.74;95526.03;5019073;28;20388;-82
2023/10/03 11:42:54;;;;;;;10.95;7.00;;;;;;;23.49;48.79;95523.00;5011762;28;20509;-79
2023/10/03 11:45:21;;;;;;;11.27;7.55;;;;;;;23.49;48.10;95523.00;5020143;28;20037;-79
2023/10/03 11:48:08;;;;;;;11.63;7.55;;;;;;;23.88;47.46;95517.88;5015457;28;20482;-79
2023/10/03 11:50:38;;;;;;;8.63;7.70;;;;;;;23.47;47.28;95517.13;5016346;28;20103;-78
2023/10/03 11:53:10;;;;;;;10.85;7.53;;;;;;;23.47;47.78;95511.84;5032569;28;20104;-80
2023/10/03 11:55:38;;;;;;;12.85;7.20;;;;;;;23.71;47.88;95512.56;5006025;28;20127;-79
2023/10/03 11:58:05;;;;;;;11.80;7.75;;;;;;;23.70;48.02;95510.13;5007789;28;20029;-79
2023/10/03 12:00:31;;;;;;;8.63;6.95;;;;;;;23.67;47.62;95506.13;4985993;28;20482;-80
2023/10/03 12:02:57;;;;;;;9.05;7.35;;;;;;;23.63;48.25;95505.78;5009318;28;20116;-78
2023/10/03 12:05:23;;;;;;;8.05;7.10;;;;;;;23.55;48.21;95498.25;4985158;28;20100;-80
2023/10/03 12:07:50;;;;;;;11.88;7.00;;;;;;;23.71;48.16;95499.31;5013424;28;20554;-79
2023/10/03 12:10:17;;;;;;;6.85;6.20;;;;;;;23.53;47.65;95494.25;5000426;28;20033;-79
2023/10/03 12:12:43;;;;;;;8.25;7.35;;;;;;;23.54;47.70;95483.41;5001930;28;20061;-79
2023/10/03 12:15:13;;;;;;;16.05;7.13;;;;;;;23.56;47.38;95484.00;4987547;28;20030;-80
2023/10/03 12:17:39;;;;;;;8.27;6.90;;;;;;;23.61;48.02;95481.44;5002468;28;20978;-83
2023/10/03 12:20:06;;;;;;;8.48;6.78;;;;;;;23.29;48.90;95477.66;5008356;28;20029;-80
2023/10/03 12:22:31;;;;;;;11.07;6.22;;;;;;;23.14;48.45;95471.28;5012673;28;20131;-79
2023/10/03 12:24:57;;;;;;;8.75;6.88;;;;;;;22.71;49.89;95471.72;5003335;28;20120;-77
2023/10/03 12:27:22;;;;;;;9.85;7.07;;;;;;;22.73;49.69;95469.69;5011610;28;20032;-80
2023/10/03 12:29:47;;;;;;;7.78;6.60;;;;;;;22.59;49.64;95467.25;5003195;28;20545;-78
2023/10/03 12:32:13;;;;;;;16.42;7.53;;;;;;;23.19;50.22;95474.00;5000117;28;20717;-79
2023/10/03 12:34:39;;;;;;;9.68;7.00;;;;;;;23.04;49.37;95475.34;5002076;28;20042;-79
2023/10/03 12:37:11;;;;;;;7.95;6.90;;;;;;;23.12;50.46;95468.84;5006686;28;20501;-79
2023/10/03 12:39:37;;;;;;;12.27;7.50;;;;;;;22.93;49.20;95462.94;5001914;28;21088;-79
2023/10/03 12:42:04;;;;;;;11.43;7.35;;;;;;;23.12;48.77;95468.84;5002771;28;20481;-79
2023/10/03 12:44:31;;;;;;;7.93;6.50;;;;;;;23.35;50.37;95466.13;5014395;28;20045;-81
2023/10/03 12:46:58;;;;;;;8.07;7.15;;;;;;;23.69;49.45;95451.16;5004326;28;20041;-79
2023/10/03 12:49:23;;;;;;;7.30;6.60;;;;;;;23.25;48.51;95454.53;4999752;28;20042;-79
2023/10/03 12:51:50;;;;;;;10.77;6.90;;;;;;;23.44;49.14;95448.84;5002025;28;20053;-81
2023/10/03 12:54:16;;;;;;;8.38;6.75;;;;;;;23.11;49.19;95456.69;5000499;28;20080;-81
2023/10/03 12:56:41;;;;;;;11.80;7.50;;;;;;;23.13;49.54;95451.97;4987124;28;20042;-79
2023/10/03 12:59:08;;;;;;;8.70;7.60;;;;;;;23.40;48.41;95444.28;5005813;28;20120;-78
2023/10/03 13:01:33;;;;;;;9.95;7.00;;;;;;;22.92;48.17;95449.97;5005061;28;20099;-78
2023/10/03 13:03:59;;;;;;;10.85;6.78;;;;;;;23.26;48.57;95442.94;4994959;28;20025;-79
2023/10/03 13:06:25;;;;;;;9.20;6.78;;;;;;;23.31;49.29;95443.03;5002739;28;20037;-79
2023/10/03 13:08:52;;;;;;;10.27;7.15;;;;;;;23.27;48.47;95442.72;4993364;28;20033;-79
2023/10/03 13:11:17;;;;;;;9.63;7.55;;;;;;;23.20;48.94;95438.59;5018151;28;20222;-80
2023/10/03 13:13:45;;;;;;;10.25;6.63;;;;;;;23.08;49.11;95433.38;5009215;28;20029;-80
2023/10/03 13:16:10;;;;;;;12.15;7.82;;;;;;;23.09;49.85;95435.78;5015743;28;20061;-81
2023/10/03 13:18:37;;;;;;;9.65;7.40;;;;;;;23.03;49.59;95434.06;5010376;28;20406;-79
2023/10/03 13:21:04;;;;;;;9.98;7.22;;;;;;;22.96;49.28;95432.59;5004541;28;20101;-81
2023/10/03 13:23:30;;;;;;;11.68;7.72;;;;;;;22.99;48.43;95429.47;5010310;28;20033;-80
2023/10/03 13:25:56;;;;;;;9.73;6.32;;;;;;;22.96;48.65;95428.13;4992219;28;20057;-79
2023/10/03 13:28:22;;;;;;;10.45;7.20;;;;;;;22.98;49.39;95419.97;5003613;28;20586;-82
2023/10/03 13:30:47;;;;;;;11.90;7.78;;;;;;;22.92;48.95;95420.91;5007058;28;20039;-80
2023/10/03 13:33:13;;;;;;;10.15;7.18;;;;;;;22.94;49.52;95416.19;5019767;28;20021;-83
2023/10/03 13:35:38;;;;;;;12.45;7.22;;;;;;;23.20;49.06;95415.63;5010312;28;20026;-80
2023/10/03 13:38:04;;;;;;;14.18;7.03;;;;;;;23.01;49.17;95415.00;5016897;28;20112;-80
2023/10/03 13:40:29;;;;;;;11.20;6.93;;;;;;;23.00;48.63;95410.75;5008782;28;20401;-79
2023/10/03 13:42:58;;;;;;;9.52;7.32;;;;;;;23.03;48.22;95412.13;4995098;28;20037;-79
2023/10/03 13:45:23;;;;;;;9.82;7.15;;;;;;;23.06;47.45;95409.00;5011874;28;20049;-79
2023/10/03 13:47:49;;;;;;;13.95;7.70;;;;;;;22.98;48.19;95412.03;5005237;28;20096;-79
2023/10/03 13:50:17;;;;;;;10.55;7.90;;;;;;;22.72;48.71;95418.69;5008652;28;20411;-80
2023/10/03 13:52:42;;;;;;;11.07;6.68;;;;;;;22.73;49.81;95404.44;5009217;28;20025;-81
2023/10/03 13:55:09;;;;;;;12.10;6.60;;;;;;;22.75;49.15;95410.28;4999116;28;20034;-80
2023/10/03 13:57:40;;;;;;;10.90;7.10;;;;;;;22.59;49.82;95411.78;5006060;28;20033;-80
2023/10/03 14:00:07;;;;;;;9.43;7.45;;;;;;;22.83;49.46;95417.03;4999564;28;20029;-81
2023/10/03 14:02:34;;;;;;;12.00;6.60;;;;;;;22.52;49.77;95408.47;5006768;28;20029;-80
2023/10/03 14:05:03;;;;;;;9.13;6.93;;;;;;;22.62;50.00;95407.88;5026269;28;20033;-80
2023/10/03 14:07:29;;;;;;;9.93;6.90;;;;;;;22.52;50.11;95400.56;5025121;28;20041;-81
2023/10/03 14:09:55;;;;;;;11.80;7.25;;;;;;;22.58;50.39;95399.63;5020299;28;20116;-82
2023/10/03 14:12:21;;;;;;;11.60;6.40;;;;;;;22.67;49.82;95400.06;4998596;28;20034;-81
2023/10/03 14:14:47;;;;;;;10.55;6.85;;;;;;;22.70;50.23;95404.09;5003934;28;20103;-80
2023/10/03 14:17:12;;;;;;;13.02;7.40;;;;;;;22.56;50.00;95396.41;5003004;28;20441;-82
2023/10/03 14:19:39;;;;;;;8.77;6.88;;;;;;;22.69;50.92;95403.31;5001677;28;20032;-81
2023/10/03 14:22:05;;;;;;;10.88;7.20;;;;;;;22.58;51.04;95399.63;4998151;28;20025;-80
2023/10/03 14:24:31;;;;;;;9.77;7.03;;;;;;;22.53;51.75;95402.16;4985639;28;20056;-80
2023/10/03 14:26:59;;;;;;;14.38;7.38;;;;;;;22.54;52.40;95398.47;4999738;28;20029;-83
2023/10/03 14:29:24;;;;;;;10.45;7.28;;;;;;;22.40;50.17;95402.44;5000375;28;20560;-81
2023/10/03 14:31:50;;;;;;;12.20;7.00;;;;;;;22.40;50.29;95398.97;5007510;28;20061;-81
2023/10/03 14:34:16;;;;;;;10.45;7.43;;;;;;;22.43;50.28;95404.59;5011626;28;20132;-82
2023/10/03 14:36:43;;;;;;;9.50;6.90;;;;;;;22.31;51.44;95406.47;5003210;28;20024;-81
2023/10/03 14:39:12;;;;;;;10.43;7.47;;;;;;;22.37;50.97;95399.44;5007635;28;20040;-83